sensor_id;sensor_type;location;lat;lon;timestamp;temperature;humidity
4505;DHT22;2265;48.794;9.520;2023-10-31T00:01:56;12.80;98.00
4505;DHT22;2265;48.794;9.520;2023-10-31T00:04:25;12.80;98.00
4505;DHT22;2265;48.794;9.520;2023-10-31T00:06:52;12.70;98.00
4505;DHT22;2265;48.794;9.520;2023-10-31T00:09:19;12.80;98.00
4505;DHT22;2265;48.794;9.520;2023-10-31T00:11:49;12.70;98.00
4505;DHT22;2265;48.794;9.520;2023-10-31T00:14:16;12.60;98.00
4505;DHT22;2265;48.794;9.520;2023-10-31T00:16:44;12.60;98.00
4505;DHT22;2265;48.794;9.520;2023-10-31T00:19:13;12.50;98.00
4505;DHT22;2265;48.794;9.520;2023-10-31T00:21:41;12.50;98.00
4505;DHT22;2265;48.794;9.520;2023-10-31T00:24:08;12.50;98.00
4505;DHT22;2265;48.794;9.520;2023-10-31T00:26:35;12.60;98.00
4505;DHT22;2265;48.794;9.520;2023-10-31T00:29:03;12.60;98.00
4505;DHT22;2265;48.794;9.520;2023-10-31T00:31:30;12.50;98.00
4505;DHT22;2265;48.794;9.520;2023-10-31T00:33:57;12.50;98.00
4505;DHT22;2265;48.794;9.520;2023-10-31T00:36:26;12.50;98.00
4505;DHT22;2265;48.794;9.520;2023-10-31T00:38:53;12.60;98.00
4505;DHT22;2265;48.794;9.520;2023-10-31T00:41:20;12.50;98.00
4505;DHT22;2265;48.794;9.520;2023-10-31T00:43:47;12.40;98.00
4505;DHT22;2265;48.794;9.520;2023-10-31T00:46:14;12.30;98.00
4505;DHT22;2265;48.794;9.520;2023-10-31T00:48:41;12.30;98.00
4505;DHT22;2265;48.794;9.520;2023-10-31T00:51:08;12.30;98.00
4505;DHT22;2265;48.794;9.520;2023-10-31T00:53:36;12.30;98.00
4505;DHT22;2265;48.794;9.520;2023-10-31T00:56:07;12.40;98.00
4505;DHT22;2265;48.794;9.520;2023-10-31T00:58:34;12.40;98.00
4505;DHT22;2265;48.794;9.520;2023-10-31T01:01:02;12.30;98.00
4505;DHT22;2265;48.794;9.520;2023-10-31T01:03:29;12.30;98.00
4505;DHT22;2265;48.794;9.520;2023-10-31T01:05:56;12.40;98.00
4505;DHT22;2265;48.794;9.520;2023-10-31T01:08:23;12.40;98.00
4505;DHT22;2265;48.794;9.520;2023-10-31T01:10:51;12.50;98.00
4505;DHT22;2265;48.794;9.520;2023-10-31T01:13:18;12.40;98.00
4505;DHT22;2265;48.794;9.520;2023-10-31T01:15:45;12.40;98.00
4505;DHT22;2265;48.794;9.520;2023-10-31T01:18:12;12.30;98.00
4505;DHT22;2265;48.794;9.520;2023-10-31T01:20:40;12.40;98.00
4505;DHT22;2265;48.794;9.520;2023-10-31T01:23:07;12.50;98.00
4505;DHT22;2265;48.794;9.520;2023-10-31T01:25:34;12.60;98.00
4505;DHT22;2265;48.794;9.520;2023-10-31T01:28:02;12.80;98.00
4505;DHT22;2265;48.794;9.520;2023-10-31T01:30:30;12.80;98.00
4505;DHT22;2265;48.794;9.520;2023-10-31T01:32:57;12.80;98.00
4505;DHT22;2265;48.794;9.520;2023-10-31T01:35:24;12.80;98.00
4505;DHT22;2265;48.794;9.520;2023-10-31T01:37:51;12.70;98.00
4505;DHT22;2265;48.794;9.520;2023-10-31T01:40:18;12.70;98.00
4505;DHT22;2265;48.794;9.520;2023-10-31T01:42:45;12.70;98.00
4505;DHT22;2265;48.794;9.520;2023-10-31T01:45:13;12.60;98.00
4505;DHT22;2265;48.794;9.520;2023-10-31T01:47:40;12.70;98.00
4505;DHT22;2265;48.794;9.520;2023-10-31T01:50:10;12.60;98.00
4505;DHT22;2265;48.794;9.520;2023-10-31T01:52:38;12.60;98.00
4505;DHT22;2265;48.794;9.520;2023-10-31T01:55:05;12.60;98.00
4505;DHT22;2265;48.794;9.520;2023-10-31T01:57:33;12.60;98.00
4505;DHT22;2265;48.794;9.520;2023-10-31T02:00:00;12.60;98.00
4505;DHT22;2265;48.794;9.520;2023-10-31T02:02:32;12.60;98.00
4505;DHT22;2265;48.794;9.520;2023-10-31T02:05:00;12.40;98.00
4505;DHT22;2265;48.794;9.520;2023-10-31T02:07:28;12.40;98.00
4505;DHT22;2265;48.794;9.520;2023-10-31T02:09:55;12.30;98.00
4505;DHT22;2265;48.794;9.520;2023-10-31T02:12:31;12.40;98.00
4505;DHT22;2265;48.794;9.520;2023-10-31T02:14:59;12.40;98.00
4505;DHT22;2265;48.794;9.520;2023-10-31T02:17:26;12.30;98.00
4505;DHT22;2265;48.794;9.520;2023-10-31T02:19:55;12.20;98.00
4505;DHT22;2265;48.794;9.520;2023-10-31T02:22:23;12.30;98.00
4505;DHT22;2265;48.794;9.520;2023-10-31T02:24:50;12.40;98.00
4505;DHT22;2265;48.794;9.520;2023-10-31T02:27:18;12.30;98.00
4505;DHT22;2265;48.794;9.520;2023-10-31T02:29:46;12.30;98.00
4505;DHT22;2265;48.794;9.520;2023-10-31T02:32:13;12.20;98.00
4505;DHT22;2265;48.794;9.520;2023-10-31T02:34:40;12.20;98.00
4505;DHT22;2265;48.794;9.520;2023-10-31T02:37:07;12.10;98.00
4505;DHT22;2265;48.794;9.520;2023-10-31T02:39:37;12.10;98.00
4505;DHT22;2265;48.794;9.520;2023-10-31T02:42:04;12.10;98.00
4505;DHT22;2265;48.794;9.520;2023-10-31T02:44:31;12.10;98.00
4505;DHT22;2265;48.794;9.520;2023-10-31T02:46:58;12.10;98.00
4505;DHT22;2265;48.794;9.520;2023-10-31T02:49:25;12.00;98.00
4505;DHT22;2265;48.794;9.520;2023-10-31T02:51:52;12.00;98.00
4505;DHT22;2265;48.794;9.520;2023-10-31T02:54:19;12.10;98.00
4505;DHT22;2265;48.794;9.520;2023-10-31T02:56:48;12.10;98.00
4505;DHT22;2265;48.794;9.520;2023-10-31T02:59:15;12.10;98.00
4505;DHT22;2265;48.794;9.520;2023-10-31T03:01:42;12.00;98.00
4505;DHT22;2265;48.794;9.520;2023-10-31T03:04:09;12.00;98.00
4505;DHT22;2265;48.794;9.520;2023-10-31T03:06:37;11.80;98.00
4505;DHT22;2265;48.794;9.520;2023-10-31T03:09:11;11.70;98.00
4505;DHT22;2265;48.794;9.520;2023-10-31T03:11:38;11.50;98.00
4505;DHT22;2265;48.794;9.520;2023-10-31T03:14:07;11.40;98.00
4505;DHT22;2265;48.794;9.520;2023-10-31T03:16:34;11.30;98.00
4505;DHT22;2265;48.794;9.520;2023-10-31T03:19:01;11.40;98.00
4505;DHT22;2265;48.794;9.520;2023-10-31T03:21:28;11.30;98.00
4505;DHT22;2265;48.794;9.520;2023-10-31T03:23:55;11.40;98.00
4505;DHT22;2265;48.794;9.520;2023-10-31T03:26:31;11.40;98.00
4505;DHT22;2265;48.794;9.520;2023-10-31T03:28:58;11.50;98.00
4505;DHT22;2265;48.794;9.520;2023-10-31T03:31:26;11.50;98.00
4505;DHT22;2265;48.794;9.520;2023-10-31T03:33:53;11.70;98.00
4505;DHT22;2265;48.794;9.520;2023-10-31T03:36:21;11.70;98.00
4505;DHT22;2265;48.794;9.520;2023-10-31T03:38:48;11.70;98.00
4505;DHT22;2265;48.794;9.520;2023-10-31T03:41:15;11.80;98.00
4505;DHT22;2265;48.794;9.520;2023-10-31T03:43:42;11.70;98.00
4505;DHT22;2265;48.794;9.520;2023-10-31T03:46:09;11.70;98.00
4505;DHT22;2265;48.794;9.520;2023-10-31T03:48:39;11.60;98.00
4505;DHT22;2265;48.794;9.520;2023-10-31T03:51:06;11.60;98.00
4505;DHT22;2265;48.794;9.520;2023-10-31T03:53:33;11.60;98.00
4505;DHT22;2265;48.794;9.520;2023-10-31T03:56:00;11.60;98.00
4505;DHT22;2265;48.794;9.520;2023-10-31T03:58:27;11.50;98.00
4505;DHT22;2265;48.794;9.520;2023-10-31T04:01:02;11.60;98.00
4505;DHT22;2265;48.794;9.520;2023-10-31T04:03:29;11.60;98.00
4505;DHT22;2265;48.794;9.520;2023-10-31T04:05:57;11.50;98.00
4505;DHT22;2265;48.794;9.520;2023-10-31T04:08:24;11.40;98.00
4505;DHT22;2265;48.794;9.520;2023-10-31T04:10:51;11.50;98.00
4505;DHT22;2265;48.794;9.520;2023-10-31T04:13:18;11.50;98.00
4505;DHT22;2265;48.794;9.520;2023-10-31T04:15:45;11.50;98.00
4505;DHT22;2265;48.794;9.520;2023-10-31T04:18:13;11.40;98.00
4505;DHT22;2265;48.794;9.520;2023-10-31T04:20:43;11.30;98.00
4505;DHT22;2265;48.794;9.520;2023-10-31T04:23:11;11.30;98.00
4505;DHT22;2265;48.794;9.520;2023-10-31T04:25:41;11.20;98.00
4505;DHT22;2265;48.794;9.520;2023-10-31T04:28:08;11.30;98.00
4505;DHT22;2265;48.794;9.520;2023-10-31T04:30:35;11.30;98.00
4505;DHT22;2265;48.794;9.520;2023-10-31T04:33:04;11.40;98.00
4505;DHT22;2265;48.794;9.520;2023-10-31T04:35:31;11.30;98.00
4505;DHT22;2265;48.794;9.520;2023-10-31T04:37:58;11.30;98.00
4505;DHT22;2265;48.794;9.520;2023-10-31T04:40:26;11.30;98.00
4505;DHT22;2265;48.794;9.520;2023-10-31T04:42:54;11.40;98.00
4505;DHT22;2265;48.794;9.520;2023-10-31T04:45:21;11.30;98.00
4505;DHT22;2265;48.794;9.520;2023-10-31T04:47:48;11.30;98.00
4505;DHT22;2265;48.794;9.520;2023-10-31T04:50:15;11.30;98.00
4505;DHT22;2265;48.794;9.520;2023-10-31T04:52:43;11.30;98.00
4505;DHT22;2265;48.794;9.520;2023-10-31T04:55:11;11.20;98.00
4505;DHT22;2265;48.794;9.520;2023-10-31T04:57:39;11.20;98.00
4505;DHT22;2265;48.794;9.520;2023-10-31T05:00:07;11.20;98.00
4505;DHT22;2265;48.794;9.520;2023-10-31T05:02:34;11.20;98.00
4505;DHT22;2265;48.794;9.520;2023-10-31T05:05:02;11.10;98.00
4505;DHT22;2265;48.794;9.520;2023-10-31T05:07:29;11.20;98.00
4505;DHT22;2265;48.794;9.520;2023-10-31T05:10:01;11.20;98.00
4505;DHT22;2265;48.794;9.520;2023-10-31T05:12:28;11.20;98.00
4505;DHT22;2265;48.794;9.520;2023-10-31T05:14:57;11.20;98.00
4505;DHT22;2265;48.794;9.520;2023-10-31T05:17:24;11.20;98.00
4505;DHT22;2265;48.794;9.520;2023-10-31T05:19:51;11.20;98.00
4505;DHT22;2265;48.794;9.520;2023-10-31T05:22:18;11.30;98.00
4505;DHT22;2265;48.794;9.520;2023-10-31T05:24:45;11.30;98.00
4505;DHT22;2265;48.794;9.520;2023-10-31T05:27:12;11.20;98.00
4505;DHT22;2265;48.794;9.520;2023-10-31T05:29:39;11.20;98.00
4505;DHT22;2265;48.794;9.520;2023-10-31T05:32:11;11.20;98.00
4505;DHT22;2265;48.794;9.520;2023-10-31T05:34:38;11.10;98.00
4505;DHT22;2265;48.794;9.520;2023-10-31T05:37:05;11.10;98.00
4505;DHT22;2265;48.794;9.520;2023-10-31T05:39:32;11.10;98.00
4505;DHT22;2265;48.794;9.520;2023-10-31T05:42:02;11.00;98.00
4505;DHT22;2265;48.794;9.520;2023-10-31T05:44:29;11.10;98.00
4505;DHT22;2265;48.794;9.520;2023-10-31T05:46:56;11.20;98.00
4505;DHT22;2265;48.794;9.520;2023-10-31T05:49:25;11.10;98.00
4505;DHT22;2265;48.794;9.520;2023-10-31T05:51:52;11.10;98.00
4505;DHT22;2265;48.794;9.520;2023-10-31T05:54:20;11.10;98.00
4505;DHT22;2265;48.794;9.520;2023-10-31T05:56:47;11.10;98.00
4505;DHT22;2265;48.794;9.520;2023-10-31T05:59:14;11.10;98.00
4505;DHT22;2265;48.794;9.520;2023-10-31T06:01:41;11.10;98.00
4505;DHT22;2265;48.794;9.520;2023-10-31T06:04:09;11.20;98.00
4505;DHT22;2265;48.794;9.520;2023-10-31T06:06:38;11.20;98.00
4505;DHT22;2265;48.794;9.520;2023-10-31T06:09:06;11.10;98.00
4505;DHT22;2265;48.794;9.520;2023-10-31T06:11:34;11.10;98.00
4505;DHT22;2265;48.794;9.520;2023-10-31T06:14:01;11.10;98.00
4505;DHT22;2265;48.794;9.520;2023-10-31T06:16:29;11.10;98.00
4505;DHT22;2265;48.794;9.520;2023-10-31T06:18:57;11.10;98.00
4505;DHT22;2265;48.794;9.520;2023-10-31T06:21:24;11.00;98.00
4505;DHT22;2265;48.794;9.520;2023-10-31T06:23:52;11.10;98.00
4505;DHT22;2265;48.794;9.520;2023-10-31T06:26:19;11.10;98.00
4505;DHT22;2265;48.794;9.520;2023-10-31T06:28:46;11.10;98.00
4505;DHT22;2265;48.794;9.520;2023-10-31T06:31:13;11.10;98.00
4505;DHT22;2265;48.794;9.520;2023-10-31T06:33:40;11.10;98.00
4505;DHT22;2265;48.794;9.520;2023-10-31T06:36:08;11.10;98.00
4505;DHT22;2265;48.794;9.520;2023-10-31T06:38:35;11.10;98.00
4505;DHT22;2265;48.794;9.520;2023-10-31T06:41:04;11.10;98.00
4505;DHT22;2265;48.794;9.520;2023-10-31T06:43:31;11.10;98.00
4505;DHT22;2265;48.794;9.520;2023-10-31T06:45:58;11.10;98.00
4505;DHT22;2265;48.794;9.520;2023-10-31T06:48:26;11.00;98.00
4505;DHT22;2265;48.794;9.520;2023-10-31T06:50:53;11.10;98.00
4505;DHT22;2265;48.794;9.520;2023-10-31T06:53:20;11.10;98.00
4505;DHT22;2265;48.794;9.520;2023-10-31T06:55:47;11.10;98.00
4505;DHT22;2265;48.794;9.520;2023-10-31T06:58:16;11.10;98.00
4505;DHT22;2265;48.794;9.520;2023-10-31T07:00:43;11.20;98.00
4505;DHT22;2265;48.794;9.520;2023-10-31T07:03:10;11.20;98.00
4505;DHT22;2265;48.794;9.520;2023-10-31T07:05:40;11.30;98.00
4505;DHT22;2265;48.794;9.520;2023-10-31T07:08:08;11.30;98.00
4505;DHT22;2265;48.794;9.520;2023-10-31T07:10:35;11.20;98.00
4505;DHT22;2265;48.794;9.520;2023-10-31T07:13:02;11.30;98.00
4505;DHT22;2265;48.794;9.520;2023-10-31T07:15:30;11.20;98.00
4505;DHT22;2265;48.794;9.520;2023-10-31T07:17:57;11.30;98.00
4505;DHT22;2265;48.794;9.520;2023-10-31T07:20:24;11.30;98.00
4505;DHT22;2265;48.794;9.520;2023-10-31T07:22:51;11.30;98.00
4505;DHT22;2265;48.794;9.520;2023-10-31T07:25:18;11.30;98.00
4505;DHT22;2265;48.794;9.520;2023-10-31T07:27:46;11.30;98.00
4505;DHT22;2265;48.794;9.520;2023-10-31T07:30:13;11.30;98.00
4505;DHT22;2265;48.794;9.520;2023-10-31T07:32:44;11.40;98.00
4505;DHT22;2265;48.794;9.520;2023-10-31T07:35:11;11.40;98.00
4505;DHT22;2265;48.794;9.520;2023-10-31T07:37:38;11.30;98.00
4505;DHT22;2265;48.794;9.520;2023-10-31T07:40:06;11.40;98.00
4505;DHT22;2265;48.794;9.520;2023-10-31T07:42:33;11.30;98.00
4505;DHT22;2265;48.794;9.520;2023-10-31T07:45:00;11.40;98.00
4505;DHT22;2265;48.794;9.520;2023-10-31T07:47:27;11.40;98.00
4505;DHT22;2265;48.794;9.520;2023-10-31T07:49:56;11.40;98.00
4505;DHT22;2265;48.794;9.520;2023-10-31T07:52:26;11.40;98.00
4505;DHT22;2265;48.794;9.520;2023-10-31T07:55:01;11.40;98.00
4505;DHT22;2265;48.794;9.520;2023-10-31T07:57:28;11.40;98.00
4505;DHT22;2265;48.794;9.520;2023-10-31T07:59:55;11.50;98.00
4505;DHT22;2265;48.794;9.520;2023-10-31T08:02:22;11.50;98.00
4505;DHT22;2265;48.794;9.520;2023-10-31T08:04:49;11.50;98.00
4505;DHT22;2265;48.794;9.520;2023-10-31T08:07:17;11.50;98.00
4505;DHT22;2265;48.794;9.520;2023-10-31T08:09:44;11.50;98.00
4505;DHT22;2265;48.794;9.520;2023-10-31T08:12:12;11.60;98.00
4505;DHT22;2265;48.794;9.520;2023-10-31T08:14:38;11.70;98.00
4505;DHT22;2265;48.794;9.520;2023-10-31T08:17:06;11.70;98.00
4505;DHT22;2265;48.794;9.520;2023-10-31T08:19:34;11.80;98.00
4505;DHT22;2265;48.794;9.520;2023-10-31T08:22:01;11.80;98.00
4505;DHT22;2265;48.794;9.520;2023-10-31T08:24:30;11.70;98.00
4505;DHT22;2265;48.794;9.520;2023-10-31T08:26:58;11.80;98.00
4505;DHT22;2265;48.794;9.520;2023-10-31T08:29:25;11.90;98.00
4505;DHT22;2265;48.794;9.520;2023-10-31T08:31:52;11.90;98.00
4505;DHT22;2265;48.794;9.520;2023-10-31T08:34:19;12.00;98.00
4505;DHT22;2265;48.794;9.520;2023-10-31T08:36:49;12.10;98.00
4505;DHT22;2265;48.794;9.520;2023-10-31T08:39:18;12.10;98.00
4505;DHT22;2265;48.794;9.520;2023-10-31T08:41:54;12.20;98.00
4505;DHT22;2265;48.794;9.520;2023-10-31T08:44:24;12.20;98.00
4505;DHT22;2265;48.794;9.520;2023-10-31T08:46:53;12.10;98.00
4505;DHT22;2265;48.794;9.520;2023-10-31T08:49:20;12.10;98.00
4505;DHT22;2265;48.794;9.520;2023-10-31T08:51:48;12.20;98.00
4505;DHT22;2265;48.794;9.520;2023-10-31T08:54:15;12.30;98.00
4505;DHT22;2265;48.794;9.520;2023-10-31T08:56:42;12.40;98.00
4505;DHT22;2265;48.794;9.520;2023-10-31T08:59:10;12.50;98.00
4505;DHT22;2265;48.794;9.520;2023-10-31T09:01:38;12.50;98.00
4505;DHT22;2265;48.794;9.520;2023-10-31T09:04:05;12.50;98.00
4505;DHT22;2265;48.794;9.520;2023-10-31T09:06:32;12.60;98.00
4505;DHT22;2265;48.794;9.520;2023-10-31T09:08:59;12.60;98.00
4505;DHT22;2265;48.794;9.520;2023-10-31T09:11:26;12.60;98.00
4505;DHT22;2265;48.794;9.520;2023-10-31T09:13:54;12.80;98.00
4505;DHT22;2265;48.794;9.520;2023-10-31T09:16:22;12.80;98.00
4505;DHT22;2265;48.794;9.520;2023-10-31T09:18:49;12.80;98.00
4505;DHT22;2265;48.794;9.520;2023-10-31T09:21:17;13.00;98.00
4505;DHT22;2265;48.794;9.520;2023-10-31T09:23:45;13.00;98.00
4505;DHT22;2265;48.794;9.520;2023-10-31T09:26:12;13.00;98.00
4505;DHT22;2265;48.794;9.520;2023-10-31T09:28:40;12.90;98.00
4505;DHT22;2265;48.794;9.520;2023-10-31T09:31:15;13.00;98.00
4505;DHT22;2265;48.794;9.520;2023-10-31T09:33:44;13.10;98.00
4505;DHT22;2265;48.794;9.520;2023-10-31T09:36:11;13.20;98.00
4505;DHT22;2265;48.794;9.520;2023-10-31T09:38:38;13.40;98.00
4505;DHT22;2265;48.794;9.520;2023-10-31T09:41:06;13.50;98.00
4505;DHT22;2265;48.794;9.520;2023-10-31T09:43:33;13.50;98.00
4505;DHT22;2265;48.794;9.520;2023-10-31T09:46:01;13.50;98.00
4505;DHT22;2265;48.794;9.520;2023-10-31T09:48:29;13.60;98.00
4505;DHT22;2265;48.794;9.520;2023-10-31T09:50:58;13.70;98.00
4505;DHT22;2265;48.794;9.520;2023-10-31T09:53:27;13.90;98.00
4505;DHT22;2265;48.794;9.520;2023-10-31T09:55:56;13.90;98.00
4505;DHT22;2265;48.794;9.520;2023-10-31T09:58:23;13.90;98.00
4505;DHT22;2265;48.794;9.520;2023-10-31T10:00:50;13.90;98.00
4505;DHT22;2265;48.794;9.520;2023-10-31T10:03:17;13.90;98.00
4505;DHT22;2265;48.794;9.520;2023-10-31T10:05:46;14.00;98.00
4505;DHT22;2265;48.794;9.520;2023-10-31T10:08:15;14.10;98.00
4505;DHT22;2265;48.794;9.520;2023-10-31T10:10:42;14.20;98.00
4505;DHT22;2265;48.794;9.520;2023-10-31T10:13:11;14.20;98.00
4505;DHT22;2265;48.794;9.520;2023-10-31T10:15:46;14.30;98.00
4505;DHT22;2265;48.794;9.520;2023-10-31T10:18:29;14.30;98.00
4505;DHT22;2265;48.794;9.520;2023-10-31T10:20:57;14.40;98.00
4505;DHT22;2265;48.794;9.520;2023-10-31T10:23:27;14.60;98.00
4505;DHT22;2265;48.794;9.520;2023-10-31T10:25:55;14.50;98.00
4505;DHT22;2265;48.794;9.520;2023-10-31T10:28:23;14.30;98.00
4505;DHT22;2265;48.794;9.520;2023-10-31T10:30:51;14.30;98.00
4505;DHT22;2265;48.794;9.520;2023-10-31T10:33:21;14.20;98.00
4505;DHT22;2265;48.794;9.520;2023-10-31T10:35:48;14.10;98.00
4505;DHT22;2265;48.794;9.520;2023-10-31T10:38:17;13.90;98.00
4505;DHT22;2265;48.794;9.520;2023-10-31T10:40:47;13.90;98.00
4505;DHT22;2265;48.794;9.520;2023-10-31T10:43:20;13.70;98.00
4505;DHT22;2265;48.794;9.520;2023-10-31T10:45:53;13.60;98.00
4505;DHT22;2265;48.794;9.520;2023-10-31T10:48:23;13.50;98.00
4505;DHT22;2265;48.794;9.520;2023-10-31T10:50:57;13.50;98.00
4505;DHT22;2265;48.794;9.520;2023-10-31T10:53:30;13.60;98.00
4505;DHT22;2265;48.794;9.520;2023-10-31T10:56:06;13.60;98.00
4505;DHT22;2265;48.794;9.520;2023-10-31T10:58:48;13.70;98.00
4505;DHT22;2265;48.794;9.520;2023-10-31T11:01:18;13.70;98.00
4505;DHT22;2265;48.794;9.520;2023-10-31T11:03:47;13.70;98.00
4505;DHT22;2265;48.794;9.520;2023-10-31T11:06:14;13.90;98.00
4505;DHT22;2265;48.794;9.520;2023-10-31T11:08:43;13.90;98.00
4505;DHT22;2265;48.794;9.520;2023-10-31T11:11:14;13.90;98.00
4505;DHT22;2265;48.794;9.520;2023-10-31T11:13:43;14.00;98.00
4505;DHT22;2265;48.794;9.520;2023-10-31T11:16:16;14.00;98.00
4505;DHT22;2265;48.794;9.520;2023-10-31T11:18:44;14.10;98.00
4505;DHT22;2265;48.794;9.520;2023-10-31T11:21:11;14.10;98.00
4505;DHT22;2265;48.794;9.520;2023-10-31T11:23:38;13.90;98.00
4505;DHT22;2265;48.794;9.520;2023-10-31T11:26:07;13.70;98.00
4505;DHT22;2265;48.794;9.520;2023-10-31T11:28:40;13.60;98.00
4505;DHT22;2265;48.794;9.520;2023-10-31T11:31:08;13.70;98.00
4505;DHT22;2265;48.794;9.520;2023-10-31T11:33:39;13.70;98.00
4505;DHT22;2265;48.794;9.520;2023-10-31T11:36:10;13.80;98.00
4505;DHT22;2265;48.794;9.520;2023-10-31T11:38:38;13.80;98.00
4505;DHT22;2265;48.794;9.520;2023-10-31T11:41:05;13.90;98.00
4505;DHT22;2265;48.794;9.520;2023-10-31T11:43:52;14.00;98.00
4505;DHT22;2265;48.794;9.520;2023-10-31T11:46:19;13.90;98.00
4505;DHT22;2265;48.794;9.520;2023-10-31T11:48:50;14.00;98.00
4505;DHT22;2265;48.794;9.520;2023-10-31T11:51:18;14.00;98.00
4505;DHT22;2265;48.794;9.520;2023-10-31T11:53:45;14.10;98.00
4505;DHT22;2265;48.794;9.520;2023-10-31T11:56:13;14.10;98.00
4505;DHT22;2265;48.794;9.520;2023-10-31T11:58:41;14.10;98.00
4505;DHT22;2265;48.794;9.520;2023-10-31T12:01:10;14.10;98.00
4505;DHT22;2265;48.794;9.520;2023-10-31T12:03:38;14.00;98.00
4505;DHT22;2265;48.794;9.520;2023-10-31T12:06:08;13.90;98.00
4505;DHT22;2265;48.794;9.520;2023-10-31T12:08:37;13.80;98.00
4505;DHT22;2265;48.794;9.520;2023-10-31T12:11:06;13.80;98.00
4505;DHT22;2265;48.794;9.520;2023-10-31T12:13:34;13.80;98.00
4505;DHT22;2265;48.794;9.520;2023-10-31T12:16:01;13.80;98.00
4505;DHT22;2265;48.794;9.520;2023-10-31T12:18:30;13.80;98.00
4505;DHT22;2265;48.794;9.520;2023-10-31T12:20:57;13.60;98.00
4505;DHT22;2265;48.794;9.520;2023-10-31T12:23:24;13.60;98.00
4505;DHT22;2265;48.794;9.520;2023-10-31T12:25:52;13.70;98.00
4505;DHT22;2265;48.794;9.520;2023-10-31T12:28:20;13.70;98.00
4505;DHT22;2265;48.794;9.520;2023-10-31T12:30:48;13.80;98.00
4505;DHT22;2265;48.794;9.520;2023-10-31T12:33:16;13.70;98.00
4505;DHT22;2265;48.794;9.520;2023-10-31T12:35:44;13.70;98.00
4505;DHT22;2265;48.794;9.520;2023-10-31T12:38:12;13.70;98.00
4505;DHT22;2265;48.794;9.520;2023-10-31T12:40:40;13.80;98.00
4505;DHT22;2265;48.794;9.520;2023-10-31T12:43:09;13.80;98.00
4505;DHT22;2265;48.794;9.520;2023-10-31T12:45:37;13.80;98.00
4505;DHT22;2265;48.794;9.520;2023-10-31T12:48:07;13.90;98.00
4505;DHT22;2265;48.794;9.520;2023-10-31T12:50:35;13.80;98.00
4505;DHT22;2265;48.794;9.520;2023-10-31T12:53:04;13.70;98.00
4505;DHT22;2265;48.794;9.520;2023-10-31T12:55:40;13.80;98.00
4505;DHT22;2265;48.794;9.520;2023-10-31T12:58:08;13.80;98.00
4505;DHT22;2265;48.794;9.520;2023-10-31T13:00:36;13.90;98.00
4505;DHT22;2265;48.794;9.520;2023-10-31T13:03:05;14.00;98.00
4505;DHT22;2265;48.794;9.520;2023-10-31T13:05:34;14.10;98.00
4505;DHT22;2265;48.794;9.520;2023-10-31T13:08:01;14.20;98.00
4505;DHT22;2265;48.794;9.520;2023-10-31T13:10:31;14.20;98.00
4505;DHT22;2265;48.794;9.520;2023-10-31T13:12:59;14.30;98.00
4505;DHT22;2265;48.794;9.520;2023-10-31T13:15:26;14.40;98.00
4505;DHT22;2265;48.794;9.520;2023-10-31T13:17:53;14.30;98.00
4505;DHT22;2265;48.794;9.520;2023-10-31T13:20:23;14.40;98.00
4505;DHT22;2265;48.794;9.520;2023-10-31T13:22:50;14.40;98.00
4505;DHT22;2265;48.794;9.520;2023-10-31T13:25:18;14.20;98.00
4505;DHT22;2265;48.794;9.520;2023-10-31T13:27:47;14.10;98.00
4505;DHT22;2265;48.794;9.520;2023-10-31T13:30:17;14.00;98.00
4505;DHT22;2265;48.794;9.520;2023-10-31T13:32:44;14.20;98.00
4505;DHT22;2265;48.794;9.520;2023-10-31T13:35:12;14.10;98.00
4505;DHT22;2265;48.794;9.520;2023-10-31T13:37:40;14.00;98.00
4505;DHT22;2265;48.794;9.520;2023-10-31T13:40:08;14.10;98.00
4505;DHT22;2265;48.794;9.520;2023-10-31T13:42:36;14.20;98.00
4505;DHT22;2265;48.794;9.520;2023-10-31T13:45:05;14.10;98.00
4505;DHT22;2265;48.794;9.520;2023-10-31T13:47:35;14.00;98.00
4505;DHT22;2265;48.794;9.520;2023-10-31T13:50:04;13.80;98.00
4505;DHT22;2265;48.794;9.520;2023-10-31T13:52:32;14.00;98.00
4505;DHT22;2265;48.794;9.520;2023-10-31T13:54:59;14.10;98.00
4505;DHT22;2265;48.794;9.520;2023-10-31T13:57:26;14.20;98.00
4505;DHT22;2265;48.794;9.520;2023-10-31T13:59:53;14.30;98.00
4505;DHT22;2265;48.794;9.520;2023-10-31T14:02:22;14.40;98.00
4505;DHT22;2265;48.794;9.520;2023-10-31T14:04:49;14.40;98.00
4505;DHT22;2265;48.794;9.520;2023-10-31T14:07:20;14.10;98.00
4505;DHT22;2265;48.794;9.520;2023-10-31T14:09:48;14.20;98.00
4505;DHT22;2265;48.794;9.520;2023-10-31T14:12:15;14.10;98.00
4505;DHT22;2265;48.794;9.520;2023-10-31T14:14:42;14.20;98.00
4505;DHT22;2265;48.794;9.520;2023-10-31T14:17:10;14.20;98.00
4505;DHT22;2265;48.794;9.520;2023-10-31T14:19:40;14.30;98.00
4505;DHT22;2265;48.794;9.520;2023-10-31T14:22:08;14.40;98.00
4505;DHT22;2265;48.794;9.520;2023-10-31T14:24:35;14.40;98.00
4505;DHT22;2265;48.794;9.520;2023-10-31T14:27:02;14.40;98.00
4505;DHT22;2265;48.794;9.520;2023-10-31T14:29:29;14.40;98.00
4505;DHT22;2265;48.794;9.520;2023-10-31T14:31:57;14.40;98.00
4505;DHT22;2265;48.794;9.520;2023-10-31T14:34:25;14.30;98.00
4505;DHT22;2265;48.794;9.520;2023-10-31T14:36:53;14.20;98.00
4505;DHT22;2265;48.794;9.520;2023-10-31T14:39:21;14.20;98.00
4505;DHT22;2265;48.794;9.520;2023-10-31T14:41:48;14.20;98.00
4505;DHT22;2265;48.794;9.520;2023-10-31T14:44:15;14.20;98.00
4505;DHT22;2265;48.794;9.520;2023-10-31T14:46:42;14.20;98.00
4505;DHT22;2265;48.794;9.520;2023-10-31T14:49:09;14.30;98.00
4505;DHT22;2265;48.794;9.520;2023-10-31T14:51:36;14.30;98.00
4505;DHT22;2265;48.794;9.520;2023-10-31T14:54:05;14.20;98.00
4505;DHT22;2265;48.794;9.520;2023-10-31T14:56:32;14.10;98.00
4505;DHT22;2265;48.794;9.520;2023-10-31T14:59:01;14.10;98.00
4505;DHT22;2265;48.794;9.520;2023-10-31T15:01:28;14.10;98.00
4505;DHT22;2265;48.794;9.520;2023-10-31T15:03:55;14.00;98.00
4505;DHT22;2265;48.794;9.520;2023-10-31T15:06:22;14.00;98.00
4505;DHT22;2265;48.794;9.520;2023-10-31T15:08:49;14.10;98.00
4505;DHT22;2265;48.794;9.520;2023-10-31T15:11:18;14.10;98.00
4505;DHT22;2265;48.794;9.520;2023-10-31T15:13:45;14.10;98.00
4505;DHT22;2265;48.794;9.520;2023-10-31T15:16:18;14.10;98.00
4505;DHT22;2265;48.794;9.520;2023-10-31T15:18:45;14.10;98.00
4505;DHT22;2265;48.794;9.520;2023-10-31T15:21:13;13.90;98.00
4505;DHT22;2265;48.794;9.520;2023-10-31T15:23:48;13.80;98.00
4505;DHT22;2265;48.794;9.520;2023-10-31T15:26:15;13.70;98.00
4505;DHT22;2265;48.794;9.520;2023-10-31T15:28:44;13.60;98.00
4505;DHT22;2265;48.794;9.520;2023-10-31T15:31:11;13.50;98.00
4505;DHT22;2265;48.794;9.520;2023-10-31T15:33:39;13.40;98.00
4505;DHT22;2265;48.794;9.520;2023-10-31T15:36:10;13.30;98.00
4505;DHT22;2265;48.794;9.520;2023-10-31T15:38:38;13.20;98.00
4505;DHT22;2265;48.794;9.520;2023-10-31T15:41:05;13.20;98.00
4505;DHT22;2265;48.794;9.520;2023-10-31T15:43:32;13.10;98.00
4505;DHT22;2265;48.794;9.520;2023-10-31T15:46:01;13.00;98.00
4505;DHT22;2265;48.794;9.520;2023-10-31T15:48:28;13.10;98.00
4505;DHT22;2265;48.794;9.520;2023-10-31T15:50:55;13.40;98.00
4505;DHT22;2265;48.794;9.520;2023-10-31T15:53:22;13.50;98.00
4505;DHT22;2265;48.794;9.520;2023-10-31T15:55:49;13.40;98.00
4505;DHT22;2265;48.794;9.520;2023-10-31T15:58:16;13.30;98.00
4505;DHT22;2265;48.794;9.520;2023-10-31T16:00:47;13.00;98.00
4505;DHT22;2265;48.794;9.520;2023-10-31T16:03:16;13.00;98.00
4505;DHT22;2265;48.794;9.520;2023-10-31T16:05:43;12.90;98.00
4505;DHT22;2265;48.794;9.520;2023-10-31T16:08:10;12.90;98.00